createdAt,value
2022-12-08T00:01:28.305Z,97684.06
2022-12-08T00:03:58.172Z,97682.83
2022-12-08T00:06:49.302Z,97681.05
2022-12-08T00:09:37.849Z,97678.89
2022-12-08T00:12:08.374Z,97681.33
2022-12-08T00:14:37.460Z,97681.98
2022-12-08T00:17:06.362Z,97679.90
2022-12-08T00:19:34.431Z,97680.24
2022-12-08T00:22:03.523Z,97685.38
2022-12-08T00:24:33.046Z,97687.73
2022-12-08T00:27:03.835Z,97687.34
2022-12-08T00:29:31.933Z,97688.49
2022-12-08T00:31:59.842Z,97689.43
2022-12-08T00:34:27.771Z,97690.88
2022-12-08T00:36:55.641Z,97686.38
2022-12-08T00:39:23.505Z,97687.20
2022-12-08T00:42:10.220Z,97688.67
2022-12-08T00:44:38.186Z,97686.88
2022-12-08T00:47:06.056Z,97689.80
2022-12-08T00:49:34.426Z,97691.55
2022-12-08T00:52:02.405Z,97692.45
2022-12-08T00:54:30.187Z,97692.50
2022-12-08T00:56:58.142Z,97692.56
2022-12-08T00:59:26.113Z,97693.83
2022-12-08T01:01:54.092Z,97696.62
2022-12-08T01:04:22.050Z,97697.69
2022-12-08T01:06:50.023Z,97701.89
2022-12-08T01:09:18.495Z,97708.45
2022-12-08T01:11:46.881Z,97712.45
2022-12-08T01:14:15.147Z,97710.58
2022-12-08T01:16:43.175Z,97710.41
2022-12-08T01:19:13.039Z,97710.46
2022-12-08T01:21:41.518Z,97710.86
2022-12-08T01:24:16.754Z,97706.30
2022-12-08T01:26:44.934Z,97705.68
2022-12-08T01:29:13.206Z,97707.82
2022-12-08T01:31:41.124Z,97705.20
2022-12-08T01:34:10.379Z,97701.37
2022-12-08T01:36:38.763Z,97701.10
2022-12-08T01:39:08.465Z,97701.84
2022-12-08T01:41:37.698Z,97705.99
2022-12-08T01:44:08.516Z,97700.91
2022-12-08T01:46:37.988Z,97703.16
2022-12-08T01:49:11.709Z,97700.29
2022-12-08T01:51:45.795Z,97700.31
2022-12-08T01:54:14.614Z,97700.86
2022-12-08T01:56:46.885Z,97699.21
2022-12-08T01:59:15.054Z,97700.10
2022-12-08T02:01:43.055Z,97703.90
2022-12-08T02:04:11.309Z,97706.17
2022-12-08T02:06:42.144Z,97707.73
2022-12-08T02:09:10.722Z,97710.33
2022-12-08T02:11:38.523Z,97711.70
2022-12-08T02:14:08.480Z,97712.73
2022-12-08T02:16:55.050Z,97711.73
2022-12-08T02:19:33.007Z,97712.10
2022-12-08T02:22:06.937Z,97711.14
2022-12-08T02:24:34.794Z,97712.68
2022-12-08T02:27:08.699Z,97710.33
2022-12-08T02:29:36.570Z,97717.52
2022-12-08T02:32:16.719Z,97720.25
2022-12-08T02:34:46.636Z,97723.85
2022-12-08T02:37:18.186Z,97719.43
2022-12-08T02:40:04.915Z,97721.34
2022-12-08T02:42:56.126Z,97720.00
2022-12-08T02:45:26.741Z,97721.21
2022-12-08T02:47:55.127Z,97723.97
2022-12-08T02:50:22.989Z,97723.46
2022-12-08T02:52:50.858Z,97724.32
2022-12-08T02:55:41.661Z,97727.94
2022-12-08T02:58:24.886Z,97736.30
2022-12-08T03:00:52.757Z,97740.09
2022-12-08T03:03:49.812Z,97739.29
2022-12-08T03:06:17.877Z,97740.86
2022-12-08T03:08:48.512Z,97734.76
2022-12-08T03:11:20.514Z,97731.37
2022-12-08T03:13:51.420Z,97727.81
2022-12-08T03:16:22.506Z,97725.98
2022-12-08T03:19:00.463Z,97721.40
2022-12-08T03:21:29.248Z,97721.43
2022-12-08T03:23:57.832Z,97721.95
2022-12-08T03:26:30.409Z,97722.65
2022-12-08T03:28:58.583Z,97722.14
2022-12-08T03:31:29.729Z,97725.22
2022-12-08T03:33:59.032Z,97726.95
2022-12-08T03:36:27.519Z,97730.72
2022-12-08T03:38:55.483Z,97730.56
2022-12-08T03:41:23.560Z,97726.48
2022-12-08T03:43:59.817Z,97725.46
2022-12-08T03:48:57.296Z,97729.23
2022-12-08T03:51:25.369Z,97727.20
2022-12-08T03:53:53.328Z,97724.49
2022-12-08T03:56:28.672Z,97720.80
2022-12-08T03:58:57.052Z,97726.64
2022-12-08T04:01:25.599Z,97725.30
2022-12-08T04:03:53.911Z,97722.09
2022-12-08T04:06:22.204Z,97720.58
2022-12-08T04:08:50.626Z,97720.11
2022-12-08T04:11:19.361Z,97724.03
2022-12-08T04:13:47.838Z,97723.85
2022-12-08T04:16:24.074Z,97719.74
2022-12-08T04:18:52.686Z,97721.09
2022-12-08T04:21:20.764Z,97720.40
2022-12-08T04:23:49.255Z,97716.80
2022-12-08T04:26:17.720Z,97712.65
2022-12-08T04:28:45.603Z,97713.63
2022-12-08T04:31:13.733Z,97713.92
2022-12-08T04:33:41.735Z,97711.30
2022-12-08T04:36:10.110Z,97709.52
2022-12-08T04:38:38.077Z,97707.58
2022-12-08T04:41:05.944Z,97706.17
2022-12-08T04:43:33.914Z,97707.45
2022-12-08T04:46:01.782Z,97710.52
2022-12-08T04:48:29.751Z,97714.83
2022-12-08T04:50:57.728Z,97718.40
2022-12-08T04:53:27.026Z,97723.00
2022-12-08T04:55:54.874Z,97727.62
2022-12-08T04:58:22.862Z,97734.11
2022-12-08T05:00:50.846Z,97736.52
2022-12-08T05:03:22.523Z,97740.09
2022-12-08T05:05:54.857Z,97740.23
2022-12-08T05:08:22.793Z,97736.82
2022-12-08T05:10:50.807Z,97736.13
2022-12-08T05:13:18.791Z,97733.72
2022-12-08T05:15:46.630Z,97736.60
2022-12-08T05:18:15.830Z,97741.16
2022-12-08T05:20:43.809Z,97746.91
2022-12-08T05:23:11.667Z,97747.02
2022-12-08T05:25:39.532Z,97748.53
2022-12-08T05:28:39.776Z,97756.36
2022-12-08T05:30:55.445Z,97751.73
2022-12-08T05:33:23.282Z,97752.06
2022-12-08T05:35:51.282Z,97750.31
2022-12-08T05:38:19.247Z,97756.11
2022-12-08T05:40:47.323Z,97757.65
2022-12-08T05:43:15.412Z,97758.16
2022-12-08T05:45:43.419Z,97762.77
2022-12-08T05:48:11.547Z,97757.52
2022-12-08T05:50:40.023Z,97754.29
2022-12-08T05:53:07.986Z,97751.04
2022-12-08T05:55:35.851Z,97753.40
2022-12-08T05:58:07.793Z,97752.02
2022-12-08T06:00:36.198Z,97753.02
2022-12-08T06:03:04.189Z,97753.02
2022-12-08T06:05:35.821Z,97753.32
2022-12-08T06:08:03.918Z,97759.08
2022-12-08T06:10:31.819Z,97763.17
2022-12-08T06:12:59.734Z,97765.41
2022-12-08T06:15:27.698Z,97766.77
2022-12-08T06:17:55.567Z,97773.27
2022-12-08T06:20:23.367Z,97768.81
2022-12-08T06:22:51.400Z,97764.69
2022-12-08T06:25:19.375Z,97765.52
2022-12-08T06:27:47.332Z,97765.33
2022-12-08T06:30:15.828Z,97769.24
2022-12-08T06:32:44.920Z,97774.34
2022-12-08T06:35:12.785Z,97772.77
2022-12-08T06:37:40.669Z,97774.79
2022-12-08T06:40:08.922Z,97773.55
2022-12-08T06:42:47.295Z,97775.20
2022-12-08T06:45:17.059Z,97776.85
2022-12-08T06:47:45.436Z,97781.06
2022-12-08T06:50:13.824Z,97779.66
2022-12-08T06:52:54.263Z,97777.91
2022-12-08T06:55:57.450Z,97775.15
2022-12-08T06:58:14.890Z,97781.23
2022-12-08T07:00:42.790Z,97783.25
2022-12-08T07:03:11.347Z,97785.58
2022-12-08T07:05:39.620Z,97794.27
2022-12-08T07:08:08.472Z,97800.36
2022-12-08T07:10:36.999Z,97800.45
2022-12-08T07:13:04.828Z,97799.35
2022-12-08T07:15:32.828Z,97795.81
2022-12-08T07:18:00.834Z,97800.67
2022-12-08T07:20:29.045Z,97801.24
2022-12-08T07:22:56.996Z,97801.78
2022-12-08T07:25:25.226Z,97801.29
2022-12-08T07:27:53.595Z,97804.38
2022-12-08T07:30:21.465Z,97802.22
2022-12-08T07:32:49.329Z,97800.45
2022-12-08T07:35:17.311Z,97797.17
2022-12-08T07:37:45.172Z,97795.05
2022-12-08T07:40:13.551Z,97799.76
2022-12-08T07:42:41.520Z,97807.22
2022-12-08T07:45:09.734Z,97813.86
2022-12-08T07:47:37.659Z,97816.73
2022-12-08T07:50:06.139Z,97813.55
2022-12-08T07:52:35.344Z,97804.54
2022-12-08T07:55:03.371Z,97799.48
2022-12-08T07:57:31.174Z,97807.77
2022-12-08T07:59:59.040Z,97815.71
2022-12-08T08:02:27.111Z,97815.95
2022-12-08T08:04:55.339Z,97812.27
2022-12-08T08:07:23.374Z,97805.17
2022-12-08T08:09:51.142Z,97800.41
2022-12-08T08:12:34.209Z,97810.50
2022-12-08T08:15:07.647Z,97813.58
2022-12-08T08:17:36.985Z,97815.85
2022-12-08T08:20:09.503Z,97809.58
2022-12-08T08:22:37.498Z,97805.70
2022-12-08T08:25:05.874Z,97809.20
2022-12-08T08:27:33.739Z,97808.80
2022-12-08T08:30:02.183Z,97808.92
2022-12-08T08:32:33.469Z,97805.98
2022-12-08T08:35:02.056Z,97806.45
2022-12-08T08:37:30.023Z,97807.06
2022-12-08T08:39:58.195Z,97804.05
2022-12-08T08:42:25.978Z,97799.73
2022-12-08T08:44:53.781Z,97795.74
2022-12-08T08:47:21.707Z,97792.26
2022-12-08T08:49:49.564Z,97785.84
2022-12-08T08:52:17.328Z,97788.44
2022-12-08T08:54:45.413Z,97788.14
2022-12-08T08:57:13.264Z,97782.00
2022-12-08T08:59:41.231Z,97780.11
2022-12-08T09:02:15.782Z,97778.14
2022-12-08T09:04:44.390Z,97780.35
2022-12-08T09:07:12.618Z,97773.02
2022-12-08T09:09:40.990Z,97764.63
2022-12-08T09:12:09.167Z,97761.04
2022-12-08T09:14:37.333Z,97764.55
2022-12-08T09:17:05.830Z,97760.42
2022-12-08T09:19:33.698Z,97760.48
2022-12-08T09:22:01.653Z,97757.71
2022-12-08T09:24:29.644Z,97747.57
2022-12-08T09:26:57.501Z,97741.64
2022-12-08T09:29:28.678Z,97737.89
2022-12-08T09:31:59.580Z,97739.38
2022-12-08T09:34:27.449Z,97738.90
2022-12-08T09:36:55.320Z,97736.48
2022-12-08T09:39:23.183Z,97730.91
2022-12-08T09:41:56.376Z,97729.05
2022-12-08T09:44:40.624Z,97725.29
2022-12-08T09:47:19.775Z,97724.29
2022-12-08T09:50:13.737Z,97719.61
2022-12-08T09:52:45.264Z,97715.48
2022-12-08T09:55:20.928Z,97712.49
2022-12-08T09:57:56.334Z,97715.09
2022-12-08T10:00:24.658Z,97712.48
2022-12-08T10:02:52.834Z,97715.04
2022-12-08T10:05:22.030Z,97715.20
2022-12-08T10:07:59.365Z,97715.97
2022-12-08T10:10:53.504Z,97713.16
2022-12-08T10:13:27.364Z,97717.16
2022-12-08T10:16:15.248Z,97718.83
2022-12-08T10:18:47.319Z,97716.48
2022-12-08T10:21:19.073Z,97712.94
2022-12-08T10:23:51.655Z,97708.37
2022-12-08T10:26:20.955Z,97703.55
2022-12-08T10:28:48.920Z,97697.86
2022-12-08T10:31:19.935Z,97697.36
2022-12-08T10:33:49.672Z,97691.74
2022-12-08T10:36:17.536Z,97691.95
2022-12-08T10:38:45.506Z,97690.11
2022-12-08T10:41:14.405Z,97684.13
2022-12-08T10:43:49.845Z,97674.18
2022-12-08T10:46:22.804Z,97668.98
2022-12-08T10:48:54.998Z,97662.38
2022-12-08T10:51:36.691Z,97653.01
2022-12-08T10:54:06.293Z,97649.38
2022-12-08T10:56:34.163Z,97647.96
2022-12-08T10:59:06.590Z,97639.81
2022-12-08T11:01:36.618Z,97643.66
2022-12-08T11:04:07.233Z,97644.48
2022-12-08T11:06:36.696Z,97644.02
2022-12-08T11:09:24.223Z,97649.64
2022-12-08T11:11:57.614Z,97646.20
2022-12-08T11:14:25.589Z,97637.03
2022-12-08T11:17:16.811Z,97629.30
2022-12-08T11:19:46.305Z,97616.87
2022-12-08T11:22:29.333Z,97601.73
2022-12-08T11:24:59.208Z,97587.68
2022-12-08T11:27:27.122Z,97582.33
2022-12-08T11:29:55.416Z,97585.19
2022-12-08T11:32:23.354Z,97581.01
2022-12-08T11:34:54.299Z,97574.64
2022-12-08T11:37:28.653Z,97568.31
2022-12-08T11:40:03.636Z,97562.58
2022-12-08T11:42:38.481Z,97554.08
2022-12-08T11:45:10.541Z,97552.61
2022-12-08T11:47:43.837Z,97551.02
2022-12-08T11:50:25.941Z,97550.17
2022-12-08T11:52:53.803Z,97550.82
2022-12-08T11:55:43.940Z,97547.31
2022-12-08T11:58:17.347Z,97543.79
2022-12-08T12:00:45.770Z,97541.67
2022-12-08T12:03:19.951Z,97537.69
2022-12-08T12:06:18.303Z,97541.13
2022-12-08T12:08:51.560Z,97543.00
2022-12-08T12:11:39.395Z,97547.21
2022-12-08T12:14:13.209Z,97549.34
2022-12-08T12:16:50.423Z,97549.00
2022-12-08T12:19:19.602Z,97545.08
2022-12-08T12:21:54.090Z,97541.87
2022-12-08T12:24:29.433Z,97541.08
2022-12-08T12:27:02.751Z,97539.30
2022-12-08T12:29:35.532Z,97541.91
2022-12-08T12:32:07.491Z,97539.70
2022-12-08T12:34:38.975Z,97543.23
2022-12-08T12:37:12.252Z,97539.45
2022-12-08T12:40:07.426Z,97531.59
2022-12-08T12:42:38.800Z,97522.55
2022-12-08T12:45:16.392Z,97523.46
2022-12-08T12:47:51.031Z,97526.64
2022-12-08T12:50:33.330Z,97529.66
2022-12-08T12:53:01.393Z,97530.70
2022-12-08T12:55:47.900Z,97525.55
2022-12-08T12:58:20.376Z,97516.84
2022-12-08T13:00:48.342Z,97512.23
2022-12-08T13:03:17.360Z,97505.38
2022-12-08T13:05:51.038Z,97494.52
2022-12-08T13:08:24.614Z,97487.05
2022-12-08T13:11:01.314Z,97482.03
2022-12-08T13:13:29.598Z,97477.79
2022-12-08T13:16:20.619Z,97477.00
2022-12-08T13:18:56.200Z,97476.95
2022-12-08T13:21:25.406Z,97476.10
2022-12-08T13:24:14.572Z,97474.39
2022-12-08T13:26:46.685Z,97472.61
2022-12-08T13:29:15.265Z,97475.64
2022-12-08T13:31:49.775Z,97475.87
2022-12-08T13:34:33.727Z,97478.64
2022-12-08T13:37:10.943Z,97483.05
2022-12-08T13:39:38.996Z,97489.34
2022-12-08T13:42:12.805Z,97490.54
2022-12-08T13:45:19.757Z,97485.40
2022-12-08T13:47:35.158Z,97486.75
2022-12-08T13:53:42.000Z,97496.77
2022-12-08T13:58:36.465Z,97490.70
2022-12-08T14:01:17.495Z,97488.08
2022-12-08T14:06:50.539Z,97471.57
2022-12-08T14:09:29.596Z,97473.14
2022-12-08T14:11:58.266Z,97482.20
2022-12-08T14:17:23.295Z,97476.77
2022-12-08T14:19:58.932Z,97470.64
2022-12-08T14:22:33.375Z,97471.34
2022-12-08T14:25:02.344Z,97476.50
2022-12-08T14:27:33.794Z,97482.16
2022-12-08T14:30:02.744Z,97487.77
2022-12-08T14:32:39.770Z,97484.05
2022-12-08T14:35:08.029Z,97484.33
2022-12-08T14:37:37.899Z,97498.29
2022-12-08T14:40:24.567Z,97505.69
2022-12-08T14:43:07.690Z,97507.73
2022-12-08T14:45:35.760Z,97508.11
2022-12-08T14:48:23.500Z,97505.05
2022-12-08T14:50:57.049Z,97504.73
2022-12-08T14:53:25.614Z,97492.58
2022-12-08T14:55:53.528Z,97478.93
2022-12-08T14:58:24.991Z,97461.20
2022-12-08T15:00:54.816Z,97451.98
2022-12-08T15:03:23.914Z,97457.71
2022-12-08T15:05:53.416Z,97470.99
2022-12-08T15:08:21.727Z,97477.65
2022-12-08T15:11:08.816Z,97477.23
2022-12-08T15:13:43.785Z,97477.02
2022-12-08T15:16:23.702Z,97482.21
2022-12-08T15:19:02.211Z,97486.46
2022-12-08T15:21:31.199Z,97487.48
2022-12-08T15:23:59.297Z,97487.90
2022-12-08T15:26:28.277Z,97485.70
2022-12-08T15:28:56.131Z,97479.70
2022-12-08T15:31:24.178Z,97473.63
2022-12-08T15:33:52.281Z,97475.36
2022-12-08T15:36:20.077Z,97476.35
2022-12-08T15:38:47.885Z,97478.70
2022-12-08T15:41:15.781Z,97478.79
2022-12-08T15:43:43.644Z,97478.03
2022-12-08T15:46:11.899Z,97477.52
2022-12-08T15:48:40.092Z,97472.90
2022-12-08T15:51:07.957Z,97463.67
2022-12-08T15:53:35.935Z,97458.58
2022-12-08T15:58:56.046Z,97459.55
2022-12-08T16:01:24.940Z,97463.32
2022-12-08T16:07:20.447Z,97455.94
2022-12-08T16:09:32.783Z,97456.00
2022-12-08T16:12:19.845Z,97452.27
2022-12-08T16:17:36.619Z,97446.29
2022-12-08T16:20:06.107Z,97440.21
2022-12-08T16:25:23.077Z,97419.81
2022-12-08T16:28:05.229Z,97415.59
2022-12-08T16:30:36.675Z,97410.45
2022-12-08T16:33:04.878Z,97409.73
2022-12-08T16:35:33.224Z,97402.38
2022-12-08T16:38:01.233Z,97395.58
2022-12-08T16:40:29.816Z,97396.96
2022-12-08T16:42:57.674Z,97398.33
2022-12-08T16:45:27.174Z,97402.45
2022-12-08T16:47:56.690Z,97398.73
2022-12-08T16:50:29.363Z,97389.79
2022-12-08T16:52:58.680Z,97383.90
2022-12-08T16:55:26.852Z,97381.93
2022-12-08T16:57:55.018Z,97390.10
2022-12-08T17:00:24.384Z,97402.19
2022-12-08T17:02:52.900Z,97403.11
2022-12-08T17:05:22.401Z,97402.98
2022-12-08T17:07:51.611Z,97402.55
2022-12-08T17:10:23.671Z,97404.41
2022-12-08T17:12:51.651Z,97407.02
2022-12-08T17:15:21.264Z,97404.48
2022-12-08T17:17:49.213Z,97405.38
2022-12-08T17:20:24.761Z,97408.38
2022-12-08T17:22:57.649Z,97406.36
2022-12-08T17:25:26.365Z,97397.33
2022-12-08T17:27:54.512Z,97395.14
2022-12-08T17:30:22.582Z,97396.23
2022-12-08T17:32:52.940Z,97398.64
2022-12-08T17:35:20.975Z,97397.45
2022-12-08T17:37:48.944Z,97397.08
2022-12-08T17:40:16.772Z,97394.08
2022-12-08T17:42:44.885Z,97391.05
2022-12-08T17:45:12.850Z,97388.48
2022-12-08T17:47:40.820Z,97385.58
2022-12-08T17:50:09.080Z,97382.17
2022-12-08T17:52:37.688Z,97375.92
2022-12-08T17:55:06.068Z,97375.91
2022-12-08T17:57:34.028Z,97367.67
2022-12-08T18:00:01.999Z,97365.27
2022-12-08T18:02:39.784Z,97362.59
2022-12-08T18:05:08.181Z,97362.89
2022-12-08T18:07:36.023Z,97360.35
2022-12-08T18:10:04.411Z,97355.77
2022-12-08T18:12:32.909Z,97349.98
2022-12-08T18:15:00.738Z,97347.23
2022-12-08T18:17:28.678Z,97342.45
2022-12-08T18:19:56.610Z,97342.50
2022-12-08T18:22:24.472Z,97340.30
2022-12-08T18:24:52.646Z,97338.52
2022-12-08T18:27:20.621Z,97344.61
2022-12-08T18:29:48.486Z,97349.92
2022-12-08T18:32:16.460Z,97351.83
2022-12-08T18:34:44.748Z,97358.36
2022-12-08T18:37:12.703Z,97359.92
2022-12-08T18:39:41.206Z,97359.05
2022-12-08T18:42:24.824Z,97356.45
2022-12-08T18:44:56.335Z,97357.93
2022-12-08T18:47:24.555Z,97358.05
2022-12-08T18:49:52.548Z,97359.64
2022-12-08T18:52:28.276Z,97360.91
2022-12-08T18:55:07.816Z,97362.73
2022-12-08T18:57:40.386Z,97362.17
2022-12-08T19:00:09.861Z,97362.15
2022-12-08T19:02:38.894Z,97364.45
2022-12-08T19:05:07.596Z,97362.86
2022-12-08T19:07:35.446Z,97365.08
2022-12-08T19:10:04.508Z,97363.98
2022-12-08T19:12:32.715Z,97362.77
2022-12-08T19:15:00.699Z,97365.86
2022-12-08T19:17:29.881Z,97365.42
2022-12-08T19:19:57.857Z,97365.36
2022-12-08T19:22:25.685Z,97365.52
2022-12-08T19:24:53.687Z,97366.98
2022-12-08T19:27:21.757Z,97362.03
2022-12-08T19:29:49.686Z,97357.88
2022-12-08T19:32:17.703Z,97357.20
2022-12-08T19:34:45.675Z,97358.58
2022-12-08T19:37:13.949Z,97362.30
2022-12-08T19:40:00.309Z,97369.91
2022-12-08T19:42:47.048Z,97383.54
2022-12-08T19:45:16.673Z,97390.08
2022-12-08T19:47:44.999Z,97398.60
2022-12-08T19:50:32.064Z,97400.57
2022-12-08T19:53:00.395Z,97402.87
2022-12-08T19:55:28.420Z,97398.98
2022-12-08T19:58:01.768Z,97395.71
2022-12-08T20:00:31.055Z,97399.45
2022-12-08T20:03:00.024Z,97397.38
2022-12-08T20:05:28.787Z,97393.13
2022-12-08T20:07:57.174Z,97394.98
2022-12-08T20:10:28.265Z,97390.88
2022-12-08T20:13:16.680Z,97390.73
2022-12-08T20:15:45.320Z,97392.16
2022-12-08T20:18:14.234Z,97392.73
2022-12-08T20:20:42.716Z,97395.23
2022-12-08T20:23:11.195Z,97393.50
2022-12-08T20:25:40.095Z,97400.75
2022-12-08T20:28:08.113Z,97398.98
2022-12-08T20:30:38.580Z,97394.56
2022-12-08T20:33:06.789Z,97387.40
2022-12-08T20:35:34.730Z,97392.50
2022-12-08T20:38:03.068Z,97393.67
2022-12-08T20:40:31.006Z,97394.22
2022-12-08T20:42:58.938Z,97396.02
2022-12-08T20:45:27.027Z,97390.46
2022-12-08T20:47:54.877Z,97390.16
2022-12-08T20:50:22.864Z,97387.23
2022-12-08T20:52:50.942Z,97390.34
2022-12-08T20:55:19.099Z,97390.52
2022-12-08T20:57:47.114Z,97391.55
2022-12-08T21:00:15.335Z,97390.82
2022-12-08T21:02:48.542Z,97396.02
2022-12-08T21:05:18.167Z,97388.64
2022-12-08T21:07:46.700Z,97382.19
2022-12-08T21:10:14.718Z,97387.89
2022-12-08T21:12:42.790Z,97389.84
2022-12-08T21:15:12.469Z,97392.78
2022-12-08T21:17:40.661Z,97390.36
2022-12-08T21:20:09.350Z,97390.95
2022-12-08T21:22:37.742Z,97387.80
2022-12-08T21:25:07.619Z,97384.05
2022-12-08T21:27:36.858Z,97379.92
2022-12-08T21:30:05.962Z,97372.40
2022-12-08T21:32:34.507Z,97372.79
2022-12-08T21:35:03.007Z,97373.33
2022-12-08T21:37:31.106Z,97370.45
2022-12-08T21:39:59.045Z,97367.27
2022-12-08T21:42:45.549Z,97364.80
2022-12-08T21:45:15.484Z,97365.17
2022-12-08T21:47:44.085Z,97370.31
2022-12-08T21:50:12.405Z,97370.48
2022-12-08T21:52:42.418Z,97368.59
2022-12-08T21:55:12.538Z,97371.83
2022-12-08T21:57:41.341Z,97376.70
2022-12-08T22:00:11.809Z,97375.84
2022-12-08T22:02:40.238Z,97375.35
2022-12-08T22:05:08.888Z,97370.56
2022-12-08T22:07:41.141Z,97369.23
2022-12-08T22:10:10.652Z,97367.33
2022-12-08T22:12:39.168Z,97362.37
2022-12-08T22:15:08.029Z,97361.16
2022-12-08T22:17:37.601Z,97362.16
2022-12-08T22:20:07.292Z,97356.13
2022-12-08T22:22:35.804Z,97354.35
2022-12-08T22:25:04.484Z,97352.64
2022-12-08T22:27:35.512Z,97349.07
2022-12-08T22:30:04.504Z,97345.49
2022-12-08T22:32:32.948Z,97344.98
2022-12-08T22:35:01.077Z,97345.29
2022-12-08T22:37:29.325Z,97338.55
2022-12-08T22:39:57.166Z,97336.65
2022-12-08T22:42:25.262Z,97334.25
2022-12-08T22:44:53.109Z,97337.19
2022-12-08T22:47:21.720Z,97338.42
2022-12-08T22:49:49.508Z,97343.10
2022-12-08T22:52:17.675Z,97343.15
2022-12-08T22:54:45.661Z,97340.75
2022-12-08T22:57:13.697Z,97343.66
2022-12-08T22:59:41.671Z,97342.28
2022-12-08T23:02:10.255Z,97342.09
2022-12-08T23:04:38.857Z,97338.66
2022-12-08T23:07:06.949Z,97336.92
2022-12-08T23:09:35.046Z,97339.17
2022-12-08T23:12:03.358Z,97341.77
2022-12-08T23:14:31.365Z,97342.40
2022-12-08T23:16:59.651Z,97341.95
2022-12-08T23:19:27.673Z,97345.11
2022-12-08T23:21:55.547Z,97345.66
2022-12-08T23:24:23.601Z,97346.58
2022-12-08T23:26:51.584Z,97344.38
2022-12-08T23:29:19.649Z,97342.98
2022-12-08T23:31:47.729Z,97343.16
2022-12-08T23:34:15.572Z,97347.76
2022-12-08T23:36:43.876Z,97353.77
2022-12-08T23:39:12.260Z,97352.84
2022-12-08T23:41:40.478Z,97352.98
2022-12-08T23:44:09.258Z,97352.38
2022-12-08T23:46:37.369Z,97352.77
2022-12-08T23:49:05.846Z,97350.36
2022-12-08T23:51:33.945Z,97349.95
2022-12-08T23:54:01.781Z,97349.15
2022-12-08T23:56:30.649Z,97348.25
2022-12-08T23:59:00.316Z,97349.99
